createdAt,value
2023-05-05T00:02:08.933Z,99.90
2023-05-05T00:04:35.608Z,99.90
2023-05-05T00:07:02.346Z,99.90
2023-05-05T00:09:48.121Z,99.90
2023-05-05T00:12:14.761Z,99.90
2023-05-05T00:14:41.428Z,99.90
2023-05-05T00:17:08.111Z,99.90
2023-05-05T00:22:22.582Z,99.90
2023-05-05T00:24:49.213Z,99.90
2023-05-05T00:27:15.894Z,99.90
2023-05-05T00:30:01.695Z,99.90
2023-05-05T00:32:28.329Z,99.90
2023-05-05T00:34:54.963Z,99.90
2023-05-05T00:37:21.576Z,99.90
2023-05-05T00:39:50.775Z,99.90
2023-05-05T00:42:17.418Z,99.90
2023-05-05T00:44:44.904Z,99.90
2023-05-05T00:47:11.615Z,99.90
2023-05-05T00:49:57.314Z,99.90
2023-05-05T00:52:25.076Z,99.90
2023-05-05T00:54:51.668Z,99.90
2023-05-05T00:57:18.328Z,99.90
2023-05-05T00:59:46.237Z,99.90
2023-05-05T01:02:12.990Z,99.90
2023-05-05T01:04:40.925Z,99.90
2023-05-05T01:07:07.488Z,99.90
2023-05-05T01:09:34.293Z,99.90
2023-05-05T01:12:00.919Z,99.90
2023-05-05T01:14:27.569Z,99.90
2023-05-05T01:16:54.166Z,99.90
2023-05-05T01:22:25.128Z,99.90
2023-05-05T01:24:52.036Z,99.90
2023-05-05T01:27:19.761Z,99.90
2023-05-05T01:30:05.625Z,99.90
2023-05-05T01:32:32.561Z,99.90
2023-05-05T01:34:59.813Z,99.90
2023-05-05T01:37:26.755Z,99.90
2023-05-05T01:39:53.340Z,99.90
2023-05-05T01:42:19.974Z,99.90
2023-05-05T01:44:46.647Z,99.90
2023-05-05T01:47:13.373Z,99.90
2023-05-05T01:49:41.226Z,99.90
2023-05-05T01:52:08.192Z,99.90
2023-05-05T01:54:34.819Z,99.90
2023-05-05T01:57:02.042Z,99.90
2023-05-05T01:59:28.895Z,99.90
2023-05-05T02:01:55.568Z,99.90
2023-05-05T02:04:25.681Z,99.90
2023-05-05T02:06:53.085Z,99.90
2023-05-05T02:09:23.022Z,99.90
2023-05-05T02:11:49.927Z,99.90
2023-05-05T02:14:16.573Z,99.90
2023-05-05T02:16:43.168Z,99.90
2023-05-05T02:19:12.157Z,99.90
2023-05-05T02:21:38.847Z,99.90
2023-05-05T02:24:06.177Z,99.90
2023-05-05T02:26:32.769Z,99.90
2023-05-05T02:29:02.028Z,99.90
2023-05-05T02:31:28.719Z,99.90
2023-05-05T02:33:55.939Z,99.90
2023-05-05T02:36:22.878Z,99.90
2023-05-05T02:38:55.842Z,99.90
2023-05-05T02:41:24.737Z,99.90
2023-05-05T02:43:51.544Z,99.90
2023-05-05T02:46:19.353Z,99.90
2023-05-05T02:49:07.779Z,99.90
2023-05-05T02:51:35.447Z,99.90
2023-05-05T02:54:07.521Z,99.90
2023-05-05T02:56:34.257Z,99.90
2023-05-05T02:59:20.060Z,99.90
2023-05-05T03:01:51.042Z,99.90
2023-05-05T03:04:19.464Z,99.90
2023-05-05T03:06:52.194Z,99.90
2023-05-05T03:09:43.039Z,99.90
2023-05-05T03:12:09.695Z,99.90
2023-05-05T03:14:46.680Z,99.90
2023-05-05T03:17:15.899Z,99.90
2023-05-05T03:19:43.754Z,99.90
2023-05-05T03:22:11.384Z,99.90
2023-05-05T03:24:42.629Z,99.90
2023-05-05T03:27:10.895Z,99.90
2023-05-05T03:29:41.478Z,99.90
2023-05-05T03:32:12.332Z,99.90
2023-05-05T03:34:40.491Z,99.90
2023-05-05T03:37:07.227Z,99.90
2023-05-05T03:39:54.056Z,99.90
2023-05-05T03:42:21.802Z,99.90
2023-05-05T03:44:48.456Z,99.90
2023-05-05T03:47:15.264Z,99.90
2023-05-05T03:49:42.437Z,99.90
2023-05-05T03:52:09.116Z,99.90
2023-05-05T03:54:36.234Z,99.90
2023-05-05T03:57:02.872Z,99.90
2023-05-05T03:59:30.035Z,99.90
2023-05-05T04:01:56.894Z,99.90
2023-05-05T04:04:23.730Z,99.90
2023-05-05T04:06:51.619Z,99.90
2023-05-05T04:09:19.583Z,99.90
2023-05-05T04:11:46.160Z,99.90
2023-05-05T04:14:12.895Z,99.90
2023-05-05T04:16:39.578Z,99.90
2023-05-05T04:19:07.249Z,99.90
2023-05-05T04:21:34.556Z,99.90
2023-05-05T04:24:01.294Z,99.90
2023-05-05T04:26:28.075Z,99.90
2023-05-05T04:28:56.083Z,99.90
2023-05-05T04:31:23.179Z,99.90
2023-05-05T04:33:49.878Z,99.90
2023-05-05T04:36:16.665Z,99.90
2023-05-05T04:38:46.684Z,99.90
2023-05-05T04:41:13.505Z,99.90
2023-05-05T04:43:42.317Z,99.90
2023-05-05T04:46:09.012Z,99.90
2023-05-05T04:48:41.066Z,99.90
2023-05-05T04:51:07.807Z,99.90
2023-05-05T04:53:36.027Z,99.90
2023-05-05T04:56:02.702Z,99.90
2023-05-05T04:58:31.535Z,99.90
2023-05-05T05:00:58.514Z,99.90
2023-05-05T05:03:25.205Z,99.90
2023-05-05T05:05:51.915Z,99.90
2023-05-05T05:08:18.897Z,99.90
2023-05-05T05:10:45.564Z,99.90
2023-05-05T05:13:13.081Z,99.90
2023-05-05T05:15:40.659Z,99.90
2023-05-05T05:18:08.420Z,99.90
2023-05-05T05:20:35.350Z,99.90
2023-05-05T05:23:02.400Z,99.90
2023-05-05T05:25:30.792Z,99.90
2023-05-05T05:28:22.499Z,99.90
2023-05-05T05:30:54.210Z,99.90
2023-05-05T05:33:21.657Z,99.90
2023-05-05T05:35:49.076Z,99.90
2023-05-05T05:38:40.335Z,99.90
2023-05-05T05:41:07.873Z,99.90
2023-05-05T05:43:36.438Z,99.90
2023-05-05T05:46:05.035Z,99.90
2023-05-05T05:48:34.975Z,99.90
2023-05-05T05:51:02.550Z,99.90
2023-05-05T05:53:29.672Z,99.90
2023-05-05T05:55:56.922Z,99.90
2023-05-05T05:58:26.348Z,99.90
2023-05-05T06:00:53.149Z,99.90
2023-05-05T06:03:23.320Z,99.90
2023-05-05T06:05:50.720Z,99.90
2023-05-05T06:08:22.542Z,99.90
2023-05-05T06:10:52.920Z,99.90
2023-05-05T06:13:21.454Z,99.90
2023-05-05T06:15:51.025Z,99.90
2023-05-05T06:18:20.479Z,99.90
2023-05-05T06:20:47.237Z,99.90
2023-05-05T06:23:17.800Z,99.90
2023-05-05T06:25:50.773Z,99.90
2023-05-05T06:28:36.756Z,99.90
2023-05-05T06:31:03.461Z,99.90
2023-05-05T06:33:30.154Z,99.90
2023-05-05T06:35:56.907Z,99.90
2023-05-05T06:41:27.586Z,99.90
2023-05-05T06:43:54.315Z,99.90
2023-05-05T06:46:30.291Z,99.90
2023-05-05T06:49:11.321Z,99.90
2023-05-05T06:51:40.502Z,99.90
2023-05-05T06:54:08.096Z,99.90
2023-05-05T06:56:34.764Z,99.90
2023-05-05T06:59:01.538Z,99.90
2023-05-05T07:01:28.172Z,99.90
2023-05-05T07:03:54.849Z,99.90
2023-05-05T07:06:21.619Z,99.90
2023-05-05T07:08:49.620Z,99.90
2023-05-05T07:11:16.249Z,99.90
2023-05-05T07:13:42.938Z,99.90
2023-05-05T07:16:09.556Z,99.90
2023-05-05T07:18:39.352Z,99.90
2023-05-05T07:21:06.685Z,99.90
2023-05-05T07:23:33.394Z,99.90
2023-05-05T07:26:00.157Z,99.90
2023-05-05T07:28:28.894Z,99.90
2023-05-05T07:30:55.587Z,99.90
2023-05-05T07:33:22.272Z,99.90
2023-05-05T07:35:48.901Z,99.90
2023-05-05T07:38:34.985Z,99.90
2023-05-05T07:41:01.687Z,99.90
2023-05-05T07:43:28.482Z,99.90
2023-05-05T07:45:55.161Z,99.90
2023-05-05T07:48:23.091Z,99.90
2023-05-05T07:50:49.705Z,99.90
2023-05-05T07:53:16.295Z,99.90
2023-05-05T07:55:42.929Z,99.90
2023-05-05T07:58:11.080Z,99.90
2023-05-05T08:00:37.780Z,99.90
2023-05-05T08:03:04.493Z,99.90
2023-05-05T08:05:31.356Z,99.90
2023-05-05T08:08:00.218Z,99.90
2023-05-05T08:10:26.893Z,99.90
2023-05-05T08:12:54.892Z,99.90
2023-05-05T08:15:21.686Z,99.90
2023-05-05T08:17:49.604Z,99.90
2023-05-05T08:20:16.364Z,99.90
2023-05-05T08:22:43.114Z,99.90
2023-05-05T08:25:11.085Z,99.90
2023-05-05T08:27:39.164Z,99.90
2023-05-05T08:30:06.167Z,99.90
2023-05-05T08:32:32.968Z,99.90
2023-05-05T08:34:59.651Z,99.90
2023-05-05T08:37:26.440Z,99.90
2023-05-05T08:39:53.005Z,99.90
2023-05-05T08:42:32.783Z,99.90
2023-05-05T08:45:03.476Z,99.90
2023-05-05T08:47:32.256Z,99.90
2023-05-05T08:49:58.996Z,99.90
2023-05-05T08:52:25.770Z,99.90
2023-05-05T08:54:52.434Z,99.90
2023-05-05T08:57:19.064Z,99.90
2023-05-05T08:59:47.997Z,99.90
2023-05-05T09:02:14.608Z,99.90
2023-05-05T09:04:41.291Z,99.90
2023-05-05T09:07:07.861Z,99.90
2023-05-05T09:09:53.426Z,99.90
2023-05-05T09:12:20.046Z,99.90
2023-05-05T09:14:47.105Z,99.90
2023-05-05T09:17:13.727Z,99.90
2023-05-05T09:19:41.540Z,99.90
2023-05-05T09:22:08.589Z,99.90
2023-05-05T09:24:35.221Z,99.90
2023-05-05T09:27:02.197Z,99.90
2023-05-05T09:29:30.174Z,99.90
2023-05-05T09:31:56.822Z,99.90
2023-05-05T09:34:23.459Z,99.90
2023-05-05T09:36:50.098Z,99.90
2023-05-05T09:39:16.821Z,99.90
2023-05-05T09:41:47.022Z,99.90
2023-05-05T09:44:16.020Z,99.90
2023-05-05T09:46:42.690Z,99.90
2023-05-05T09:49:14.291Z,99.90
2023-05-05T09:51:47.220Z,99.90
2023-05-05T09:54:13.969Z,99.90
2023-05-05T09:56:40.840Z,99.90
2023-05-05T09:59:09.789Z,99.90
2023-05-05T10:01:40.806Z,99.90
2023-05-05T10:04:07.834Z,99.90
2023-05-05T10:06:34.464Z,99.90
2023-05-05T10:09:02.345Z,99.90
2023-05-05T10:11:29.125Z,99.90
2023-05-05T10:13:55.912Z,99.90
2023-05-05T10:16:23.952Z,99.90
2023-05-05T10:18:51.126Z,99.90
2023-05-05T10:21:17.761Z,99.90
2023-05-05T10:23:44.562Z,99.90
2023-05-05T10:26:11.360Z,99.90
2023-05-05T10:28:39.216Z,99.90
2023-05-05T10:31:13.182Z,99.90
2023-05-05T10:33:44.989Z,99.90
2023-05-05T10:36:11.820Z,99.90
2023-05-05T10:38:57.596Z,99.90
2023-05-05T10:41:24.244Z,99.90
2023-05-05T10:43:51.322Z,99.90
2023-05-05T10:46:18.043Z,99.90
2023-05-05T10:48:47.004Z,99.90
2023-05-05T10:51:18.857Z,99.90
2023-05-05T10:53:51.149Z,99.90
2023-05-05T10:56:17.806Z,99.90
2023-05-05T11:01:50.716Z,99.90
2023-05-05T11:04:17.750Z,99.90
2023-05-05T11:06:44.383Z,99.90
2023-05-05T11:09:12.309Z,99.90
2023-05-05T11:11:38.932Z,99.90
2023-05-05T11:14:05.653Z,99.90
2023-05-05T11:16:32.337Z,99.90
2023-05-05T11:22:47.223Z,99.90
2023-05-05T11:25:14.054Z,99.90
2023-05-05T11:27:41.070Z,99.90
2023-05-05T11:30:08.117Z,99.90
2023-05-05T11:32:35.020Z,99.90
2023-05-05T11:35:01.765Z,99.90
2023-05-05T11:37:28.373Z,99.90
2023-05-05T11:39:54.980Z,99.90
2023-05-05T11:42:21.525Z,99.90
2023-05-05T11:44:48.154Z,99.90
2023-05-05T11:47:14.764Z,99.90
2023-05-05T11:49:42.456Z,99.90
2023-05-05T11:52:09.143Z,99.90
2023-05-05T11:54:35.799Z,99.90
2023-05-05T11:57:05.128Z,99.90
2023-05-05T11:59:31.908Z,99.90
2023-05-05T12:01:58.502Z,99.90
2023-05-05T12:04:25.122Z,99.90
2023-05-05T12:06:51.859Z,99.90
2023-05-05T12:09:18.502Z,99.90
2023-05-05T12:11:45.146Z,99.90
2023-05-05T12:14:11.825Z,99.90
2023-05-05T12:16:38.658Z,99.90
2023-05-05T12:19:05.860Z,99.90
2023-05-05T12:21:32.496Z,99.90
2023-05-05T12:23:59.228Z,99.90
2023-05-05T12:26:29.085Z,99.90
2023-05-05T12:28:55.989Z,99.90
2023-05-05T12:31:22.668Z,98.30
2023-05-05T12:33:49.391Z,99.90
2023-05-05T12:36:16.402Z,99.90
2023-05-05T12:38:43.114Z,99.90
2023-05-05T12:41:09.797Z,99.90
2023-05-05T12:43:36.485Z,99.90
2023-05-05T12:46:03.427Z,99.60
2023-05-05T12:48:30.672Z,99.90
2023-05-05T12:50:57.256Z,99.90
2023-05-05T12:53:23.931Z,99.90
2023-05-05T12:55:51.131Z,99.90
2023-05-05T12:58:17.768Z,99.90
2023-05-05T13:00:44.370Z,99.90
2023-05-05T13:03:11.397Z,99.90
2023-05-05T13:05:38.054Z,99.90
2023-05-05T13:08:04.707Z,99.90
2023-05-05T13:10:31.539Z,99.90
2023-05-05T13:12:58.496Z,99.90
2023-05-05T13:15:25.148Z,99.90
2023-05-05T13:17:51.900Z,99.80
2023-05-05T13:20:18.602Z,97.30
2023-05-05T13:22:45.221Z,97.10
2023-05-05T13:25:12.043Z,97.40
2023-05-05T13:27:38.844Z,97.40
2023-05-05T13:30:06.092Z,98.20
2023-05-05T13:32:32.753Z,99.70
2023-05-05T13:34:59.349Z,99.90
2023-05-05T13:37:25.969Z,99.90
2023-05-05T13:39:52.635Z,99.90
2023-05-05T13:42:19.250Z,98.10
2023-05-05T13:44:45.911Z,99.00
2023-05-05T13:47:13.968Z,98.20
2023-05-05T13:49:40.790Z,94.70
2023-05-05T13:52:07.991Z,92.20
2023-05-05T13:54:34.607Z,92.40
2023-05-05T13:57:01.226Z,91.60
2023-05-05T13:59:28.853Z,92.50
2023-05-05T14:01:55.968Z,93.60
2023-05-05T14:04:22.667Z,94.30
2023-05-05T14:06:49.471Z,95.50
2023-05-05T14:09:16.289Z,96.00
2023-05-05T14:11:42.931Z,95.40
2023-05-05T14:14:09.593Z,96.40
2023-05-05T14:16:36.367Z,95.10
2023-05-05T14:19:03.090Z,95.10
2023-05-05T14:21:29.767Z,95.50
2023-05-05T14:23:56.493Z,94.10
2023-05-05T14:26:23.270Z,96.70
2023-05-05T14:28:50.127Z,93.90
2023-05-05T14:31:17.614Z,91.70
2023-05-05T14:33:44.300Z,93.10
2023-05-05T14:36:11.094Z,93.70
2023-05-05T14:38:37.921Z,93.80
2023-05-05T14:41:04.658Z,93.70
2023-05-05T14:43:31.362Z,96.60
2023-05-05T14:46:00.201Z,94.70
2023-05-05T14:48:26.974Z,96.70
2023-05-05T14:50:53.590Z,96.20
2023-05-05T14:53:20.245Z,96.30
2023-05-05T14:55:46.869Z,97.30
2023-05-05T14:58:13.523Z,98.20
2023-05-05T15:00:40.291Z,95.50
2023-05-05T15:03:10.006Z,95.70
2023-05-05T15:05:39.114Z,94.90
2023-05-05T15:08:06.548Z,93.30
2023-05-05T15:10:33.165Z,92.50
2023-05-05T15:13:00.058Z,93.20
2023-05-05T15:15:27.085Z,92.30
2023-05-05T15:17:53.793Z,91.90
2023-05-05T15:20:20.456Z,93.10
2023-05-05T15:22:48.439Z,93.20
2023-05-05T15:25:16.351Z,92.70
2023-05-05T15:27:43.022Z,93.70
2023-05-05T15:30:09.941Z,92.20
2023-05-05T15:32:36.818Z,92.40
2023-05-05T15:35:03.780Z,91.80
2023-05-05T15:37:30.608Z,92.10
2023-05-05T15:39:57.304Z,92.10
2023-05-05T15:42:23.954Z,91.20
2023-05-05T15:44:50.632Z,91.80
2023-05-05T15:47:17.257Z,92.60
2023-05-05T15:49:43.958Z,93.40
2023-05-05T15:52:11.489Z,93.50
2023-05-05T15:54:38.251Z,94.70
2023-05-05T15:57:04.867Z,94.70
2023-05-05T15:59:31.645Z,96.70
2023-05-05T16:01:58.233Z,97.10
2023-05-05T16:04:24.938Z,96.30
2023-05-05T16:06:51.541Z,97.40
2023-05-05T16:09:18.145Z,97.60
2023-05-05T16:11:44.846Z,99.60
2023-05-05T16:14:11.458Z,99.90
2023-05-05T16:16:38.083Z,99.90
2023-05-05T16:19:04.817Z,99.90
2023-05-05T16:21:31.569Z,99.90
2023-05-05T16:23:58.366Z,99.90
2023-05-05T16:26:24.982Z,99.90
2023-05-05T16:28:52.245Z,99.90
2023-05-05T16:31:19.037Z,99.90
2023-05-05T16:33:45.757Z,99.90
2023-05-05T16:36:12.472Z,99.90
2023-05-05T16:38:39.195Z,99.90
2023-05-05T16:41:07.047Z,99.90
2023-05-05T16:43:33.834Z,99.90
2023-05-05T16:46:00.758Z,99.90
2023-05-05T16:48:27.424Z,99.90
2023-05-05T16:50:54.107Z,99.90
2023-05-05T16:53:21.169Z,99.90
2023-05-05T16:55:47.935Z,99.90
2023-05-05T16:58:14.555Z,99.90
2023-05-05T17:00:41.178Z,99.90
2023-05-05T17:03:08.063Z,99.90
2023-05-05T17:05:34.679Z,99.90
2023-05-05T17:08:03.003Z,99.90
2023-05-05T17:10:29.636Z,99.90
2023-05-05T17:12:56.273Z,99.90
2023-05-05T17:15:22.902Z,99.90
2023-05-05T17:17:49.618Z,99.90
2023-05-05T17:20:16.612Z,99.90
2023-05-05T17:22:43.330Z,99.90
2023-05-05T17:25:10.425Z,99.90
2023-05-05T17:27:38.467Z,99.90
2023-05-05T17:30:05.433Z,99.90
2023-05-05T17:35:37.291Z,99.90
2023-05-05T17:38:04.391Z,99.90
2023-05-05T17:40:31.114Z,99.90
2023-05-05T17:42:57.996Z,99.90
2023-05-05T17:45:24.779Z,99.90
2023-05-05T17:50:59.657Z,99.90
2023-05-05T17:59:18.887Z,99.90
2023-05-05T18:01:47.983Z,99.90
2023-05-05T18:04:17.479Z,99.90
2023-05-05T18:06:45.409Z,99.90
2023-05-05T18:09:12.115Z,99.90
2023-05-05T18:11:38.770Z,99.90
2023-05-05T18:14:05.466Z,99.90
2023-05-05T18:16:51.129Z,99.90
2023-05-05T18:19:17.810Z,99.90
2023-05-05T18:21:44.407Z,99.90
2023-05-05T18:24:19.490Z,99.90
2023-05-05T18:26:49.443Z,99.90
2023-05-05T18:29:16.129Z,99.90
2023-05-05T18:31:43.918Z,99.90
2023-05-05T18:34:10.624Z,99.90
2023-05-05T18:36:37.349Z,99.90
2023-05-05T18:39:03.946Z,99.90
2023-05-05T18:41:30.739Z,99.90
2023-05-05T18:43:57.357Z,99.90
2023-05-05T18:46:25.427Z,99.90
2023-05-05T18:48:52.050Z,99.90
2023-05-05T18:51:18.662Z,99.90
2023-05-05T18:53:45.265Z,99.90
2023-05-05T18:56:12.107Z,99.90
2023-05-05T18:58:38.958Z,99.90
2023-05-05T19:01:05.644Z,99.90
2023-05-05T19:03:32.345Z,99.90
2023-05-05T19:05:59.278Z,99.90
2023-05-05T19:08:25.866Z,99.90
2023-05-05T19:10:52.529Z,99.90
2023-05-05T19:13:19.244Z,99.90
2023-05-05T19:15:46.070Z,99.90
2023-05-05T19:18:12.852Z,99.90
2023-05-05T19:20:42.830Z,99.90
2023-05-05T19:23:09.537Z,99.90
2023-05-05T19:25:37.593Z,99.90
2023-05-05T19:28:04.333Z,99.90
2023-05-05T19:30:31.351Z,99.90
2023-05-05T19:32:58.060Z,99.90
2023-05-05T19:35:26.125Z,99.90
2023-05-05T19:37:52.723Z,99.90
2023-05-05T19:40:19.366Z,99.90
2023-05-05T19:42:46.056Z,99.90
2023-05-05T19:45:12.716Z,99.90
2023-05-05T19:47:39.406Z,99.90
2023-05-05T19:50:06.312Z,99.90
2023-05-05T19:52:33.019Z,99.90
2023-05-05T19:54:59.612Z,99.90
2023-05-05T19:57:26.345Z,99.90
2023-05-05T19:59:53.000Z,99.90
2023-05-05T20:02:21.958Z,99.90
2023-05-05T20:04:49.608Z,99.90
2023-05-05T20:07:17.901Z,99.90
2023-05-05T20:09:45.107Z,99.90
2023-05-05T20:12:12.252Z,99.90
2023-05-05T20:14:38.908Z,99.90
2023-05-05T20:17:06.688Z,99.90
2023-05-05T20:19:33.323Z,99.90
2023-05-05T20:21:59.959Z,99.90
2023-05-05T20:24:28.676Z,99.90
2023-05-05T20:26:57.641Z,99.90
2023-05-05T20:29:24.229Z,99.90
2023-05-05T20:31:50.925Z,99.90
2023-05-05T20:34:17.591Z,99.90
2023-05-05T20:36:46.093Z,99.90
2023-05-05T20:39:12.718Z,99.90
2023-05-05T20:41:40.480Z,99.90
2023-05-05T20:44:09.214Z,99.90
2023-05-05T20:46:36.017Z,99.90
2023-05-05T20:49:05.349Z,99.90
2023-05-05T20:51:34.241Z,99.90
2023-05-05T20:54:01.215Z,99.90
2023-05-05T20:56:29.152Z,99.90
2023-05-05T20:58:56.781Z,99.90
2023-05-05T21:01:23.573Z,99.90
2023-05-05T21:03:50.475Z,99.90
2023-05-05T21:06:36.057Z,99.90
2023-05-05T21:09:02.910Z,99.90
2023-05-05T21:11:29.641Z,99.90
2023-05-05T21:13:56.386Z,99.90
2023-05-05T21:16:23.252Z,99.90
2023-05-05T21:18:49.977Z,99.90
2023-05-05T21:21:16.582Z,99.90
2023-05-05T21:23:43.353Z,99.90
2023-05-05T21:26:10.412Z,99.90
2023-05-05T21:28:37.093Z,99.90
2023-05-05T21:31:21.033Z,99.90
2023-05-05T21:33:48.821Z,99.90
2023-05-05T21:36:17.583Z,99.90
2023-05-05T21:38:44.332Z,99.90
2023-05-05T21:41:11.264Z,99.90
2023-05-05T21:43:37.916Z,99.90
2023-05-05T21:46:05.008Z,99.90
2023-05-05T21:48:31.779Z,99.90
2023-05-05T21:50:58.364Z,99.90
2023-05-05T21:53:25.049Z,99.90
2023-05-05T21:55:52.863Z,99.90
2023-05-05T21:58:19.597Z,99.90
2023-05-05T22:00:46.379Z,99.90
2023-05-05T22:03:13.055Z,99.90
2023-05-05T22:05:42.073Z,99.90
2023-05-05T22:08:08.645Z,99.90
2023-05-05T22:10:35.372Z,99.90
2023-05-05T22:13:02.081Z,99.90
2023-05-05T22:15:35.684Z,99.90
2023-05-05T22:18:09.720Z,99.90
2023-05-05T22:20:36.897Z,99.90
2023-05-05T22:23:03.571Z,99.90
2023-05-05T22:25:30.314Z,99.90
2023-05-05T22:27:56.954Z,99.90
2023-05-05T22:30:23.555Z,99.90
2023-05-05T22:32:50.228Z,99.90
2023-05-05T22:35:16.834Z,99.90
2023-05-05T22:37:43.522Z,99.90
2023-05-05T22:40:10.137Z,99.90
2023-05-05T22:42:37.143Z,99.90
2023-05-05T22:45:03.850Z,99.90
2023-05-05T22:47:31.077Z,99.90
2023-05-05T22:49:58.334Z,99.90
2023-05-05T22:52:25.706Z,99.90
2023-05-05T22:54:52.356Z,99.90
2023-05-05T22:57:19.168Z,99.90
2023-05-05T22:59:45.802Z,99.90
2023-05-05T23:02:12.386Z,99.90
2023-05-05T23:04:39.075Z,99.90
2023-05-05T23:07:07.023Z,99.90
2023-05-05T23:09:33.613Z,99.90
2023-05-05T23:12:00.618Z,99.90
2023-05-05T23:14:27.254Z,99.90
2023-05-05T23:16:56.267Z,99.90
2023-05-05T23:19:24.099Z,99.90
2023-05-05T23:21:53.701Z,99.90
2023-05-05T23:24:20.633Z,99.90
2023-05-05T23:26:47.546Z,99.90
2023-05-05T23:29:14.274Z,99.90
2023-05-05T23:31:40.932Z,99.90
2023-05-05T23:34:07.651Z,99.90
2023-05-05T23:36:36.463Z,99.90
2023-05-05T23:39:03.179Z,99.90
2023-05-05T23:41:29.837Z,99.90
2023-05-05T23:43:56.444Z,99.90
2023-05-05T23:46:23.923Z,99.90
2023-05-05T23:48:50.708Z,99.90
2023-05-05T23:51:17.311Z,99.90
2023-05-05T23:53:43.924Z,99.90
2023-05-05T23:56:12.163Z,99.90
2023-05-05T23:58:38.896Z,99.90
